createdAt,value
2022-12-03T00:00:37.988Z,3.21
2022-12-03T00:03:04.605Z,3.07
2022-12-03T00:05:31.404Z,2.99
2022-12-03T00:07:58.052Z,3.33
2022-12-03T00:10:24.694Z,3.16
2022-12-03T00:12:51.209Z,3.43
2022-12-03T00:15:17.787Z,3.48
2022-12-03T00:17:44.289Z,3.44
2022-12-03T00:20:18.710Z,3.60
2022-12-03T00:22:45.290Z,3.34
2022-12-03T00:25:11.999Z,3.33
2022-12-03T00:27:38.544Z,3.60
2022-12-03T00:30:06.558Z,3.39
2022-12-03T00:32:33.051Z,3.60
2022-12-03T00:34:59.572Z,3.40
2022-12-03T00:37:26.039Z,3.44
2022-12-03T00:39:52.597Z,3.29
2022-12-03T00:42:19.079Z,3.30
2022-12-03T00:44:45.573Z,3.48
2022-12-03T00:47:12.767Z,3.44
2022-12-03T00:49:39.376Z,3.68
2022-12-03T00:52:05.844Z,3.84
2022-12-03T00:54:32.483Z,3.67
2022-12-03T00:56:59.094Z,3.93
2022-12-03T00:59:25.605Z,3.42
2022-12-03T01:01:52.265Z,3.53
2022-12-03T01:04:18.833Z,3.35
2022-12-03T01:06:45.409Z,3.17
2022-12-03T01:09:11.896Z,3.45
2022-12-03T01:11:38.397Z,3.70
2022-12-03T01:14:07.095Z,3.78
2022-12-03T01:16:34.077Z,3.56
2022-12-03T01:19:00.792Z,3.64
2022-12-03T01:21:27.674Z,3.78
2022-12-03T01:23:54.440Z,3.69
2022-12-03T01:26:20.990Z,3.53
2022-12-03T01:28:47.564Z,3.61
2022-12-03T01:31:32.760Z,3.65
2022-12-03T01:33:59.930Z,4.06
2022-12-03T01:36:26.658Z,4.10
2022-12-03T01:38:53.170Z,3.53
2022-12-03T01:41:22.314Z,3.53
2022-12-03T01:43:49.913Z,4.01
2022-12-03T01:46:21.057Z,3.57
2022-12-03T01:48:49.989Z,3.41
2022-12-03T01:51:16.517Z,3.43
2022-12-03T01:53:44.073Z,4.04
2022-12-03T01:56:14.367Z,4.03
2022-12-03T01:58:41.892Z,3.82
2022-12-03T02:01:17.567Z,3.94
2022-12-03T02:03:45.369Z,4.00
2022-12-03T02:06:17.111Z,3.76
2022-12-03T02:08:44.230Z,4.05
2022-12-03T02:11:20.740Z,3.86
2022-12-03T02:13:51.158Z,4.10
2022-12-03T02:16:17.845Z,4.18
2022-12-03T02:18:44.638Z,4.42
2022-12-03T02:21:22.620Z,3.99
2022-12-03T02:24:31.282Z,3.69
2022-12-03T02:26:57.741Z,3.90
2022-12-03T02:29:24.651Z,3.77
2022-12-03T02:31:51.274Z,3.74
2022-12-03T02:34:44.687Z,3.60
2022-12-03T02:37:17.268Z,3.86
2022-12-03T02:39:49.238Z,4.09
2022-12-03T02:42:34.748Z,3.57
2022-12-03T02:45:15.015Z,3.80
2022-12-03T02:47:45.964Z,3.85
2022-12-03T02:50:17.493Z,3.94
2022-12-03T02:52:46.294Z,3.89
2022-12-03T02:55:15.288Z,4.25
2022-12-03T02:57:45.811Z,3.42
2022-12-03T03:00:13.007Z,3.74
2022-12-03T03:02:40.916Z,3.84
2022-12-03T03:05:10.456Z,3.89
2022-12-03T03:07:37.699Z,3.59
2022-12-03T03:10:06.507Z,3.87
2022-12-03T03:12:38.856Z,3.95
2022-12-03T03:15:07.592Z,3.96
2022-12-03T03:17:35.117Z,3.45
2022-12-03T03:20:03.016Z,3.63
2022-12-03T03:22:33.482Z,4.03
2022-12-03T03:25:00.213Z,3.87
2022-12-03T03:27:28.153Z,3.45
2022-12-03T03:29:56.117Z,3.31
2022-12-03T03:32:22.676Z,3.59
2022-12-03T03:34:49.236Z,3.73
2022-12-03T03:37:15.982Z,3.77
2022-12-03T03:39:42.563Z,3.60
2022-12-03T03:42:09.517Z,3.58
2022-12-03T03:44:36.173Z,4.15
2022-12-03T03:47:02.861Z,3.77
2022-12-03T03:49:29.456Z,4.04
2022-12-03T03:51:55.947Z,4.21
2022-12-03T03:54:23.232Z,4.37
2022-12-03T03:56:49.957Z,4.19
2022-12-03T03:59:16.614Z,4.14
2022-12-03T04:01:45.109Z,3.83
2022-12-03T04:04:20.473Z,3.92
2022-12-03T04:06:48.099Z,4.18
2022-12-03T04:09:14.888Z,4.50
2022-12-03T04:12:00.606Z,4.30
2022-12-03T04:14:27.134Z,4.03
2022-12-03T04:16:53.659Z,3.75
2022-12-03T04:19:20.164Z,3.84
2022-12-03T04:22:05.087Z,3.49
2022-12-03T04:24:31.597Z,3.47
2022-12-03T04:27:16.371Z,3.23
2022-12-03T04:29:42.840Z,3.58
2022-12-03T04:32:27.933Z,3.30
2022-12-03T04:35:12.983Z,3.50
2022-12-03T04:37:39.596Z,3.60
2022-12-03T04:40:26.773Z,3.99
2022-12-03T04:42:53.252Z,3.59
2022-12-03T04:45:19.764Z,3.39
2022-12-03T04:47:46.285Z,3.68
2022-12-03T04:50:12.807Z,3.66
2022-12-03T04:52:39.353Z,3.64
2022-12-03T04:55:06.095Z,3.23
2022-12-03T04:57:32.760Z,3.45
2022-12-03T04:59:59.265Z,3.86
2022-12-03T05:02:25.925Z,3.50
2022-12-03T05:04:52.906Z,3.36
2022-12-03T05:07:19.584Z,3.51
2022-12-03T05:09:46.030Z,3.95
2022-12-03T05:12:12.470Z,3.89
2022-12-03T05:14:39.009Z,3.72
2022-12-03T05:17:05.621Z,3.58
2022-12-03T05:19:50.571Z,3.56
2022-12-03T05:22:17.001Z,3.75
2022-12-03T05:24:43.502Z,3.60
2022-12-03T05:27:10.052Z,3.56
2022-12-03T05:29:36.519Z,3.83
2022-12-03T05:32:03.504Z,4.05
2022-12-03T05:34:30.009Z,3.85
2022-12-03T05:36:56.524Z,3.66
2022-12-03T05:39:23.094Z,3.60
2022-12-03T05:42:07.906Z,3.91
2022-12-03T05:44:34.449Z,3.75
2022-12-03T05:47:00.895Z,3.49
2022-12-03T05:49:27.439Z,3.77
2022-12-03T05:51:58.499Z,3.59
2022-12-03T05:54:25.515Z,3.68
2022-12-03T05:56:52.029Z,3.70
2022-12-03T05:59:18.543Z,3.49
2022-12-03T06:01:45.072Z,3.76
2022-12-03T06:04:11.759Z,3.83
2022-12-03T06:06:38.218Z,3.63
2022-12-03T06:09:04.962Z,3.72
2022-12-03T06:11:34.058Z,3.71
2022-12-03T06:14:01.043Z,3.72
2022-12-03T06:16:27.750Z,4.04
2022-12-03T06:18:54.417Z,3.94
2022-12-03T06:21:20.904Z,3.67
2022-12-03T06:23:47.353Z,3.74
2022-12-03T06:26:14.531Z,3.62
2022-12-03T06:28:46.242Z,3.98
2022-12-03T06:31:13.689Z,3.89
2022-12-03T06:33:40.150Z,3.79
2022-12-03T06:36:07.035Z,3.72
2022-12-03T06:38:33.505Z,3.88
2022-12-03T06:41:00.001Z,3.73
2022-12-03T06:43:26.471Z,3.93
2022-12-03T06:45:52.997Z,3.92
2022-12-03T06:48:19.547Z,3.71
2022-12-03T06:50:46.044Z,3.94
2022-12-03T06:53:12.486Z,4.12
2022-12-03T06:55:38.981Z,3.85
2022-12-03T06:58:05.488Z,3.81
2022-12-03T07:00:32.069Z,3.37
2022-12-03T07:02:58.637Z,3.92
2022-12-03T07:05:25.238Z,4.08
2022-12-03T07:07:55.413Z,3.60
2022-12-03T07:10:22.320Z,3.86
2022-12-03T07:12:48.806Z,3.72
2022-12-03T07:15:15.719Z,3.82
2022-12-03T07:17:42.225Z,4.01
2022-12-03T07:20:09.105Z,4.01
2022-12-03T07:22:35.662Z,4.11
2022-12-03T07:25:02.318Z,3.98
2022-12-03T07:27:28.836Z,3.84
2022-12-03T07:29:55.370Z,3.73
2022-12-03T07:32:21.943Z,3.86
2022-12-03T07:34:48.405Z,4.05
2022-12-03T07:37:18.645Z,4.03
2022-12-03T07:39:47.993Z,4.22
2022-12-03T07:42:14.529Z,4.03
2022-12-03T07:44:41.047Z,3.83
2022-12-03T07:47:07.599Z,3.96
2022-12-03T07:49:34.208Z,3.86
2022-12-03T07:52:00.772Z,3.75
2022-12-03T07:54:27.268Z,4.01
2022-12-03T07:56:59.603Z,4.25
2022-12-03T07:59:28.605Z,4.24
2022-12-03T08:01:55.153Z,4.39
2022-12-03T08:04:21.907Z,4.41
2022-12-03T08:06:48.956Z,4.63
2022-12-03T08:09:16.437Z,4.13
2022-12-03T08:11:45.379Z,4.23
2022-12-03T08:14:14.640Z,4.16
2022-12-03T08:16:42.640Z,4.02
2022-12-03T08:19:11.825Z,4.04
2022-12-03T08:21:39.149Z,4.31
2022-12-03T08:24:21.509Z,3.73
2022-12-03T08:26:49.506Z,4.29
2022-12-03T08:29:18.480Z,4.14
2022-12-03T08:31:51.900Z,4.39
2022-12-03T08:34:19.535Z,4.62
2022-12-03T08:36:47.120Z,4.33
2022-12-03T08:39:33.459Z,4.85
2022-12-03T08:42:28.669Z,4.47
2022-12-03T08:44:55.621Z,4.54
2022-12-03T08:47:24.474Z,4.60
2022-12-03T08:49:54.934Z,4.33
2022-12-03T08:52:23.042Z,4.54
2022-12-03T08:54:55.594Z,4.42
2022-12-03T08:57:29.638Z,4.57
2022-12-03T09:00:09.910Z,4.50
2022-12-03T09:02:36.429Z,4.58
2022-12-03T09:05:24.980Z,4.89
2022-12-03T09:07:51.564Z,4.18
2022-12-03T09:10:18.057Z,4.40
2022-12-03T09:12:44.548Z,4.23
2022-12-03T09:15:11.319Z,4.15
2022-12-03T09:17:37.992Z,4.39
2022-12-03T09:20:05.953Z,4.24
2022-12-03T09:22:32.514Z,4.37
2022-12-03T09:24:59.054Z,4.56
2022-12-03T09:27:25.618Z,4.64
2022-12-03T09:29:52.244Z,4.67
2022-12-03T09:32:19.128Z,4.43
2022-12-03T09:34:46.013Z,4.59
2022-12-03T09:37:12.504Z,5.05
2022-12-03T09:39:39.074Z,4.50
2022-12-03T09:42:05.877Z,4.85
2022-12-03T09:44:34.203Z,4.62
2022-12-03T09:47:02.061Z,4.77
2022-12-03T09:49:31.689Z,5.10
2022-12-03T09:52:00.512Z,4.72
2022-12-03T09:54:28.942Z,4.45
2022-12-03T09:56:56.998Z,4.34
2022-12-03T09:59:33.129Z,4.80
2022-12-03T10:02:01.137Z,4.75
2022-12-03T10:04:28.869Z,4.77
2022-12-03T10:06:57.994Z,4.35
2022-12-03T10:09:27.138Z,4.78
2022-12-03T10:11:55.488Z,4.40
2022-12-03T10:14:22.053Z,4.52
2022-12-03T10:16:48.657Z,4.59
2022-12-03T10:19:29.025Z,4.75
2022-12-03T10:21:55.759Z,4.73
2022-12-03T10:24:37.905Z,4.54
2022-12-03T10:27:21.635Z,4.65
2022-12-03T10:30:02.657Z,4.60
2022-12-03T10:32:44.933Z,4.74
2022-12-03T10:35:14.813Z,5.34
2022-12-03T10:38:03.495Z,5.06
2022-12-03T10:40:38.495Z,5.06
2022-12-03T10:43:25.458Z,5.07
2022-12-03T10:46:16.709Z,4.82
2022-12-03T10:48:43.669Z,4.81
2022-12-03T10:51:14.148Z,4.91
2022-12-03T10:53:41.530Z,4.70
2022-12-03T10:56:13.620Z,5.06
2022-12-03T10:58:41.493Z,5.10
2022-12-03T11:01:25.787Z,5.19
2022-12-03T11:03:53.838Z,4.95
2022-12-03T11:06:22.601Z,5.10
2022-12-03T11:08:57.857Z,4.69
2022-12-03T11:11:27.029Z,4.83
2022-12-03T11:13:58.251Z,4.73
2022-12-03T11:16:39.968Z,4.79
2022-12-03T11:19:12.303Z,4.96
2022-12-03T11:22:03.230Z,4.98
2022-12-03T11:24:30.763Z,5.13
2022-12-03T11:26:57.196Z,5.15
2022-12-03T11:29:48.543Z,4.77
2022-12-03T11:32:42.959Z,4.51
2022-12-03T11:35:27.496Z,4.81
2022-12-03T11:37:54.076Z,5.12
2022-12-03T11:40:20.522Z,4.98
2022-12-03T11:42:48.310Z,5.09
2022-12-03T11:45:42.336Z,5.02
2022-12-03T11:48:14.693Z,4.96
2022-12-03T11:50:52.463Z,5.15
2022-12-03T11:53:27.113Z,4.84
2022-12-03T11:56:08.284Z,4.96
2022-12-03T11:58:42.319Z,4.84
2022-12-03T12:01:09.128Z,4.70
2022-12-03T12:03:42.824Z,5.02
2022-12-03T12:06:10.677Z,5.02
2022-12-03T12:08:54.571Z,4.92
2022-12-03T12:11:26.738Z,4.88
2022-12-03T12:13:56.205Z,5.14
2022-12-03T12:16:42.669Z,5.28
2022-12-03T12:19:31.128Z,5.07
2022-12-03T12:22:19.378Z,4.95
2022-12-03T12:24:51.238Z,4.72
2022-12-03T12:27:47.363Z,4.99
2022-12-03T12:30:17.010Z,5.40
2022-12-03T12:32:51.525Z,5.42
2022-12-03T12:35:22.550Z,5.47
2022-12-03T12:38:02.209Z,5.67
2022-12-03T12:40:31.879Z,5.63
2022-12-03T12:43:03.164Z,5.12
2022-12-03T12:45:35.831Z,5.31
2022-12-03T12:48:14.494Z,5.22
2022-12-03T12:50:46.757Z,5.44
2022-12-03T12:53:25.034Z,5.19
2022-12-03T12:55:57.112Z,5.05
2022-12-03T12:58:24.103Z,5.12
2022-12-03T13:00:56.960Z,4.71
2022-12-03T13:03:28.120Z,4.82
2022-12-03T13:05:56.817Z,4.99
2022-12-03T13:08:30.568Z,4.96
2022-12-03T13:10:59.612Z,4.79
2022-12-03T13:13:30.030Z,4.46
2022-12-03T13:16:11.946Z,4.88
2022-12-03T13:18:50.368Z,5.15
2022-12-03T13:21:38.391Z,5.00
2022-12-03T13:24:29.814Z,4.76
2022-12-03T13:26:57.338Z,5.45
2022-12-03T13:29:25.573Z,5.29
2022-12-03T13:32:19.597Z,4.79
2022-12-03T13:34:46.832Z,5.00
2022-12-03T13:37:18.511Z,5.51
2022-12-03T13:39:48.466Z,5.22
2022-12-03T13:42:38.101Z,5.27
2022-12-03T13:45:13.873Z,5.42
2022-12-03T13:48:15.245Z,5.06
2022-12-03T13:50:46.450Z,4.87
2022-12-03T13:53:25.051Z,5.36
2022-12-03T13:56:20.968Z,5.01
2022-12-03T13:58:47.559Z,5.77
2022-12-03T14:01:14.208Z,5.42
2022-12-03T14:03:40.848Z,4.85
2022-12-03T14:06:07.460Z,4.68
2022-12-03T14:08:41.472Z,5.02
2022-12-03T14:11:08.135Z,4.90
2022-12-03T14:13:34.731Z,4.76
2022-12-03T14:16:01.296Z,5.13
2022-12-03T14:18:27.903Z,4.73
2022-12-03T14:20:54.455Z,4.95
2022-12-03T14:23:36.064Z,5.00
2022-12-03T14:26:02.564Z,4.79
2022-12-03T14:28:29.030Z,4.86
2022-12-03T14:30:55.528Z,5.10
2022-12-03T14:33:22.072Z,4.88
2022-12-03T14:35:48.537Z,5.23
2022-12-03T14:38:15.034Z,4.88
2022-12-03T14:40:41.608Z,5.38
2022-12-03T14:43:08.157Z,4.79
2022-12-03T14:45:34.746Z,4.83
2022-12-03T14:48:01.233Z,5.23
2022-12-03T14:50:27.744Z,4.78
2022-12-03T14:52:54.296Z,4.88
2022-12-03T14:55:20.802Z,4.96
2022-12-03T14:57:47.407Z,4.89
2022-12-03T15:00:14.443Z,5.12
2022-12-03T15:02:41.068Z,4.88
2022-12-03T15:05:08.221Z,4.98
2022-12-03T15:07:35.072Z,4.60
2022-12-03T15:10:01.637Z,4.39
2022-12-03T15:12:28.264Z,4.69
2022-12-03T15:14:54.916Z,4.81
2022-12-03T15:17:29.490Z,4.49
2022-12-03T15:19:57.723Z,4.76
2022-12-03T15:22:24.234Z,4.57
2022-12-03T15:24:50.748Z,4.84
2022-12-03T15:27:17.261Z,4.79
2022-12-03T15:29:43.768Z,4.50
2022-12-03T15:32:10.248Z,4.65
2022-12-03T15:34:36.790Z,4.75
2022-12-03T15:37:03.389Z,4.74
2022-12-03T15:39:29.907Z,4.98
2022-12-03T15:41:56.508Z,5.04
2022-12-03T15:44:23.057Z,4.75
2022-12-03T15:46:49.572Z,4.97
2022-12-03T15:49:16.196Z,4.78
2022-12-03T15:51:42.704Z,4.59
2022-12-03T15:54:09.255Z,4.69
2022-12-03T15:56:37.612Z,4.76
2022-12-03T15:59:04.630Z,4.77
2022-12-03T16:01:31.220Z,4.88
2022-12-03T16:03:57.889Z,4.89
2022-12-03T16:06:24.463Z,5.00
2022-12-03T16:08:50.933Z,5.08
2022-12-03T16:11:17.412Z,4.83
2022-12-03T16:13:43.899Z,4.73
2022-12-03T16:16:10.451Z,5.02
2022-12-03T16:18:37.064Z,5.18
2022-12-03T16:21:03.648Z,5.28
2022-12-03T16:23:30.327Z,5.54
2022-12-03T16:25:56.979Z,5.59
2022-12-03T16:28:23.515Z,5.39
2022-12-03T16:30:50.119Z,5.36
2022-12-03T16:33:16.599Z,5.48
2022-12-03T16:35:43.151Z,5.16
2022-12-03T16:38:09.676Z,5.21
2022-12-03T16:40:36.235Z,5.09
2022-12-03T16:43:04.585Z,5.52
2022-12-03T16:45:51.541Z,5.44
2022-12-03T16:48:18.887Z,5.25
2022-12-03T16:50:45.655Z,5.08
2022-12-03T16:53:12.691Z,5.00
2022-12-03T16:55:39.889Z,5.00
2022-12-03T16:58:06.762Z,4.80
2022-12-03T17:00:33.357Z,5.08
2022-12-03T17:02:59.964Z,4.95
2022-12-03T17:05:26.581Z,5.26
2022-12-03T17:07:53.430Z,5.10
2022-12-03T17:10:20.124Z,4.72
2022-12-03T17:13:10.080Z,4.90
2022-12-03T17:15:33.437Z,4.65
2022-12-03T17:18:00.296Z,4.63
2022-12-03T17:20:26.784Z,4.62
2022-12-03T17:22:53.286Z,4.85
2022-12-03T17:25:19.869Z,4.75
2022-12-03T17:27:46.589Z,4.72
2022-12-03T17:30:15.514Z,4.59
2022-12-03T17:32:42.339Z,4.54
2022-12-03T17:35:10.039Z,4.82
2022-12-03T17:37:36.967Z,4.90
2022-12-03T17:40:10.232Z,4.87
2022-12-03T17:42:36.883Z,4.68
2022-12-03T17:45:04.154Z,4.88
2022-12-03T17:47:30.646Z,4.89
2022-12-03T17:49:57.520Z,4.59
2022-12-03T17:52:24.386Z,4.67
2022-12-03T17:57:37.386Z,4.78
2022-12-03T18:00:04.787Z,4.61
2022-12-03T18:02:31.276Z,4.93
2022-12-03T18:04:58.657Z,4.79
2022-12-03T18:07:25.384Z,4.51
2022-12-03T18:09:52.190Z,4.22
2022-12-03T18:12:19.062Z,4.64
2022-12-03T18:14:45.603Z,4.34
2022-12-03T18:17:12.119Z,4.47
2022-12-03T18:19:38.650Z,4.56
2022-12-03T18:22:08.456Z,4.35
2022-12-03T18:24:35.086Z,4.28
2022-12-03T18:27:01.556Z,4.80
2022-12-03T18:29:28.041Z,4.22
2022-12-03T18:31:54.570Z,4.78
2022-12-03T18:34:21.377Z,4.90
2022-12-03T18:36:49.050Z,4.47
2022-12-03T18:39:25.459Z,4.24
2022-12-03T18:41:53.482Z,4.56
2022-12-03T18:44:20.465Z,4.57
2022-12-03T18:46:54.929Z,4.78
2022-12-03T18:49:22.147Z,5.22
2022-12-03T18:51:49.384Z,4.78
2022-12-03T18:54:17.884Z,4.60
2022-12-03T18:56:44.429Z,4.56
2022-12-03T18:59:12.236Z,4.76
2022-12-03T19:01:38.965Z,4.61
2022-12-03T19:04:05.601Z,4.88
2022-12-03T19:06:32.171Z,4.89
2022-12-03T19:08:58.726Z,4.60
2022-12-03T19:11:25.227Z,4.93
2022-12-03T19:13:52.079Z,4.71
2022-12-03T19:16:19.158Z,4.66
2022-12-03T19:18:45.915Z,4.89
2022-12-03T19:21:14.959Z,5.06
2022-12-03T19:23:47.266Z,5.01
2022-12-03T19:26:25.637Z,4.74
2022-12-03T19:28:53.656Z,4.66
2022-12-03T19:31:21.438Z,4.91
2022-12-03T19:33:48.409Z,4.56
2022-12-03T19:36:24.392Z,4.80
2022-12-03T19:38:56.595Z,4.83
2022-12-03T19:41:30.466Z,4.63
2022-12-03T19:43:58.108Z,4.65
2022-12-03T19:46:28.718Z,4.97
2022-12-03T19:48:55.316Z,4.91
2022-12-03T19:51:36.984Z,4.84
2022-12-03T19:54:09.952Z,4.53
2022-12-03T19:56:36.516Z,4.70
2022-12-03T19:59:03.513Z,4.81
2022-12-03T20:01:32.573Z,4.47
2022-12-03T20:04:01.666Z,4.85
2022-12-03T20:06:33.588Z,4.44
2022-12-03T20:09:11.900Z,4.82
2022-12-03T20:11:40.010Z,4.75
2022-12-03T20:14:10.596Z,4.40
2022-12-03T20:16:37.182Z,4.55
2022-12-03T20:19:06.890Z,4.61
2022-12-03T20:21:35.512Z,4.51
2022-12-03T20:24:08.127Z,4.74
2022-12-03T20:26:34.851Z,4.62
2022-12-03T20:29:01.729Z,4.71
2022-12-03T20:31:31.302Z,4.64
2022-12-03T20:34:00.642Z,4.77
2022-12-03T20:36:30.026Z,4.63
2022-12-03T20:38:59.236Z,4.68
2022-12-03T20:41:25.865Z,4.39
2022-12-03T20:43:54.404Z,4.64
2022-12-03T20:46:29.478Z,4.47
2022-12-03T20:48:57.134Z,4.32
2022-12-03T20:51:27.397Z,4.21
2022-12-03T20:53:54.149Z,4.44
2022-12-03T20:56:24.933Z,4.71
2022-12-03T20:58:53.111Z,4.69
2022-12-03T21:01:23.746Z,4.99
2022-12-03T21:03:52.262Z,4.65
2022-12-03T21:06:20.173Z,4.97
2022-12-03T21:08:47.022Z,4.69
2022-12-03T21:11:16.282Z,4.46
2022-12-03T21:13:43.927Z,4.56
2022-12-03T21:16:16.413Z,4.46
2022-12-03T21:18:43.513Z,4.75
2022-12-03T21:21:15.612Z,4.35
2022-12-03T21:23:43.468Z,4.40
2022-12-03T21:26:18.302Z,4.70
2022-12-03T21:28:46.710Z,4.58
2022-12-03T21:31:15.498Z,4.64
2022-12-03T21:33:42.352Z,4.75
2022-12-03T21:36:09.710Z,4.46
2022-12-03T21:38:37.555Z,4.53
2022-12-03T21:41:05.248Z,4.77
2022-12-03T21:43:32.445Z,4.63
2022-12-03T21:45:59.160Z,4.84
2022-12-03T21:48:26.691Z,4.74
2022-12-03T21:51:00.166Z,4.63
2022-12-03T21:53:28.113Z,4.35
2022-12-03T21:55:54.700Z,4.68
2022-12-03T21:58:21.330Z,4.85
2022-12-03T22:00:47.883Z,4.63
2022-12-03T22:03:14.465Z,4.33
2022-12-03T22:05:41.024Z,4.32
2022-12-03T22:08:08.068Z,4.60
2022-12-03T22:10:35.752Z,4.49
2022-12-03T22:13:02.704Z,4.50
2022-12-03T22:15:29.229Z,4.33
2022-12-03T22:17:55.852Z,4.68
2022-12-03T22:20:23.183Z,4.68
2022-12-03T22:22:49.756Z,4.41
2022-12-03T22:25:16.313Z,4.52
2022-12-03T22:27:42.956Z,4.52
2022-12-03T22:30:09.719Z,4.41
2022-12-03T22:32:36.283Z,4.72
2022-12-03T22:35:03.196Z,4.51
2022-12-03T22:37:29.946Z,4.33
2022-12-03T22:39:57.227Z,4.29
2022-12-03T22:42:24.142Z,4.30
2022-12-03T22:44:50.673Z,4.70
2022-12-03T22:47:17.233Z,4.30
2022-12-03T22:49:43.806Z,4.23
2022-12-03T22:52:10.355Z,4.42
2022-12-03T22:54:36.966Z,4.46
2022-12-03T22:57:03.633Z,4.18
2022-12-03T22:59:30.496Z,4.30
2022-12-03T23:01:56.983Z,4.52
2022-12-03T23:04:23.560Z,4.53
2022-12-03T23:06:50.230Z,4.54
2022-12-03T23:09:16.826Z,4.44
2022-12-03T23:11:48.545Z,4.67
2022-12-03T23:14:15.127Z,4.47
2022-12-03T23:16:41.815Z,4.31
2022-12-03T23:19:08.592Z,4.26
2022-12-03T23:21:35.516Z,4.40
2022-12-03T23:24:04.403Z,4.57
2022-12-03T23:26:34.544Z,4.39
2022-12-03T23:29:01.046Z,4.49
2022-12-03T23:31:30.060Z,4.63
2022-12-03T23:33:58.228Z,5.12
2022-12-03T23:36:30.407Z,5.06
2022-12-03T23:38:57.242Z,4.53
2022-12-03T23:41:24.449Z,4.76
2022-12-03T23:43:51.526Z,4.33
2022-12-03T23:46:21.442Z,4.67
2022-12-03T23:48:54.856Z,4.49
2022-12-03T23:51:24.268Z,4.63
2022-12-03T23:53:53.053Z,4.68
2022-12-03T23:56:26.794Z,4.68
2022-12-03T23:58:53.356Z,4.67
